Aérodrome :
LOGIN :

S'inscrire | Disclaimer

   EN    FR    IT 

 










Légende :    VFR   VFR Marginal   IFR   IFR Intensif   IFR Très Intensif
Visi : 
Plafond : 
>= 8 km
>= 3000ft
5 à 8 km
1000 à 3000 ft
1500m à 5 km
500 à 1000 ft
800 à 1500m
200 à 500 ft
< 800m
< 200 ft
Symboles :   Orages  Brouillard  Fortes neiges  Fortes précipitations  Vent > 20 kt
SIGMETs :   Divers  Orages  Givrage  Turbulence  Onde Orograph.  Cendres Volcan.






- Altitude de l'aérodrome : 106 ft
- Code IATA : NRN


EDLV - Weeze

DERNIER METAR :
  • 301950Z 29006KT 9999 FEW007 14/13 Q1013

METARs EXPIRÉS :
  • 301920Z 30009KT 260V340 9000 -RA SCT006 BKN041 14/13 Q1012
  • 301850Z 28011KT 260V330 9999 -RA SCT011 14/13 Q1013
  • 301820Z 29014G25KT 260V320 9999 FEW010 15/13 Q1012
  • 301750Z 28017KT 9999 FEW008 BKN011 16/14 Q1011 RESHRA
  • 301720Z 26019G31KT 230V300 5000 SHRA VCTS SCT006 BKN024CB 16/15 Q1011

TAF TAF EDLV
Valide du 30 à 18h jusqu'au 01 à 18h UTC


301700Z 3018/0118 26008KT CAVOK
PROB40
TEMPO 3018/3022 28015G30KT SHRA BKN020CB
PROB30
TEMPO 3018/3020 30020G35KT 4000 TSRA BKN015CB
TEMPO 3018/0106 BKN012
PROB30
TEMPO 3022/0103 RA BKN008



MET'MAP, la Météo Aéronautique d'un coup d'oeil ! - Copyright ORBIFLY Décembre 2007 - Disclaimer

ORBIFLY MET'MAP TEAM :

Programmation & Développement : Alexandra Zaïnal
Sur une idée originale de : Baudouin d'Aumeries
Soutien technique & logistique : Manuel Goepfert
Assistance : Marc-Olivier Méhu




SOURCES & CREDITS :

   NOAA